createdAt,value
2018-02-23T00:00:23.171Z,9.90
2018-02-23T00:02:50.838Z,9.53
2018-02-23T00:05:18.484Z,10.37
2018-02-23T00:07:47.979Z,9.43
2018-02-23T00:10:15.711Z,9.97
2018-02-23T00:12:43.278Z,8.90
2018-02-23T00:15:10.889Z,9.63
2018-02-23T00:17:38.518Z,9.40
2018-02-23T00:20:06.087Z,9.33
2018-02-23T00:22:41.654Z,10.20
2018-02-23T00:25:09.224Z,10.50
2018-02-23T00:27:36.822Z,10.57
2018-02-23T00:30:04.452Z,9.20
2018-02-23T00:32:32.008Z,10.07
2018-02-23T00:34:59.573Z,9.53
2018-02-23T00:37:27.219Z,10.13
2018-02-23T00:39:54.810Z,11.33
2018-02-23T00:42:23.247Z,10.27
2018-02-23T00:44:50.952Z,10.00
2018-02-23T00:47:18.514Z,9.97
2018-02-23T00:49:46.087Z,10.47
2018-02-23T00:52:13.710Z,11.47
2018-02-23T00:54:41.278Z,9.70
2018-02-23T00:57:08.852Z,10.43
2018-02-23T00:59:36.538Z,10.70
2018-02-23T01:02:04.114Z,10.57
2018-02-23T01:04:31.704Z,11.33
2018-02-23T01:06:59.351Z,9.47
2018-02-23T01:09:26.918Z,10.00
2018-02-23T01:11:54.490Z,10.47
2018-02-23T01:14:22.187Z,10.07
2018-02-23T01:16:49.769Z,10.37
2018-02-23T01:19:17.411Z,11.73
2018-02-23T01:21:45.028Z,10.30
2018-02-23T01:24:12.656Z,10.77
2018-02-23T01:26:40.290Z,9.27
2018-02-23T01:29:07.899Z,12.27
2018-02-23T01:31:35.462Z,10.77
2018-02-23T01:34:03.034Z,10.70
2018-02-23T01:36:30.658Z,10.37
2018-02-23T01:38:58.222Z,11.03
2018-02-23T01:41:25.852Z,10.20
2018-02-23T01:43:53.474Z,10.60
2018-02-23T01:46:21.108Z,10.30
2018-02-23T01:48:48.686Z,10.17
2018-02-23T01:51:16.326Z,10.17
2018-02-23T01:53:43.906Z,11.93
2018-02-23T01:56:11.479Z,10.40
2018-02-23T01:58:39.098Z,10.53
2018-02-23T02:01:06.733Z,10.50
2018-02-23T02:03:34.337Z,11.30
2018-02-23T02:06:01.954Z,10.17
2018-02-23T02:08:29.503Z,11.57
2018-02-23T02:10:57.071Z,10.17
2018-02-23T02:13:24.712Z,11.17
2018-02-23T02:15:52.277Z,10.83
2018-02-23T02:18:19.913Z,10.83
2018-02-23T02:20:47.534Z,12.10
2018-02-23T02:23:15.241Z,11.40
2018-02-23T02:25:42.818Z,10.87
2018-02-23T02:28:10.446Z,11.20
2018-02-23T02:30:38.028Z,11.90
2018-02-23T02:33:05.604Z,11.27
2018-02-23T02:35:33.222Z,11.33
2018-02-23T02:38:00.787Z,11.40
2018-02-23T02:40:28.353Z,11.00
2018-02-23T02:42:56.052Z,11.57
2018-02-23T02:45:23.659Z,11.03
2018-02-23T02:47:51.299Z,12.00
2018-02-23T02:50:19.012Z,11.17
2018-02-23T02:52:46.586Z,10.93
2018-02-23T02:55:14.210Z,11.10
2018-02-23T02:57:41.829Z,10.60
2018-02-23T03:00:09.394Z,11.20
2018-02-23T03:02:36.963Z,10.73
2018-02-23T03:05:04.595Z,11.27
2018-02-23T03:07:32.173Z,9.50
2018-02-23T03:09:59.743Z,9.50
2018-02-23T03:12:27.427Z,10.00
2018-02-23T03:14:55.046Z,9.60
2018-02-23T03:17:22.632Z,10.50
2018-02-23T03:19:50.260Z,10.60
2018-02-23T03:22:17.895Z,10.90
2018-02-23T03:24:45.567Z,16.10
2018-02-23T03:27:13.187Z,10.63
2018-02-23T03:29:40.764Z,10.87
2018-02-23T03:32:08.394Z,10.17
2018-02-23T03:34:36.019Z,10.90
2018-02-23T03:37:03.582Z,10.50
2018-02-23T03:39:31.163Z,13.70
2018-02-23T03:41:58.790Z,12.30
2018-02-23T03:44:26.369Z,18.23
2018-02-23T03:46:53.939Z,11.90
2018-02-23T03:49:21.570Z,16.90
2018-02-23T03:51:49.200Z,11.10
2018-02-23T03:54:16.770Z,10.47
2018-02-23T03:56:44.403Z,12.80
2018-02-23T03:59:11.970Z,12.60
2018-02-23T04:01:39.538Z,10.70
2018-02-23T04:04:07.228Z,10.60
2018-02-23T04:06:34.799Z,10.13
2018-02-23T04:09:02.368Z,9.00
2018-02-23T04:11:30.004Z,14.70
2018-02-23T04:13:57.583Z,13.33
2018-02-23T04:16:25.150Z,12.10
2018-02-23T04:18:52.775Z,8.90
2018-02-23T04:21:20.404Z,10.27
2018-02-23T04:23:47.972Z,10.93
2018-02-23T04:26:15.658Z,9.50
2018-02-23T04:28:43.277Z,10.03
2018-02-23T04:31:10.851Z,14.53
2018-02-23T04:33:38.539Z,9.70
2018-02-23T04:36:06.133Z,9.60
2018-02-23T04:38:33.708Z,10.40
2018-02-23T04:41:01.343Z,9.10
2018-02-23T04:43:28.905Z,9.57
2018-02-23T04:45:56.466Z,9.23
2018-02-23T04:48:24.092Z,9.10
2018-02-23T04:50:51.729Z,9.70
2018-02-23T04:53:19.290Z,11.03
2018-02-23T04:55:46.906Z,11.30
2018-02-23T04:58:14.481Z,12.43
2018-02-23T05:00:42.107Z,9.47
2018-02-23T05:03:09.727Z,17.73
2018-02-23T05:05:37.324Z,10.60
2018-02-23T05:08:04.887Z,9.90
2018-02-23T05:10:32.527Z,27.13
2018-02-23T05:13:00.171Z,10.03
2018-02-23T05:15:27.796Z,9.53
2018-02-23T05:17:55.436Z,9.73
2018-02-23T05:20:23.019Z,25.67
2018-02-23T05:22:50.591Z,17.30
2018-02-23T05:25:18.291Z,11.63
2018-02-23T05:27:45.877Z,10.50
2018-02-23T05:30:13.456Z,11.70
2018-02-23T05:32:41.191Z,12.30
2018-02-23T05:35:08.835Z,11.60
2018-02-23T05:37:36.410Z,11.70
2018-02-23T05:40:04.046Z,12.33
2018-02-23T05:42:31.614Z,12.90
2018-02-23T05:44:59.234Z,23.13
2018-02-23T05:47:26.862Z,26.77
2018-02-23T05:49:54.434Z,22.07
2018-02-23T05:52:22.011Z,24.53
2018-02-23T05:54:49.691Z,20.17
2018-02-23T05:57:17.327Z,22.37
2018-02-23T05:59:44.899Z,30.47
2018-02-23T06:02:12.532Z,18.40
2018-02-23T06:04:40.114Z,14.33
2018-02-23T06:07:07.754Z,13.83
2018-02-23T06:09:35.439Z,17.70
2018-02-23T06:12:03.068Z,19.03
2018-02-23T06:14:30.711Z,17.67
2018-02-23T06:16:58.409Z,13.83
2018-02-23T06:19:31.651Z,17.90
2018-02-23T06:21:59.324Z,15.37
2018-02-23T06:24:26.901Z,14.20
2018-02-23T06:26:54.470Z,14.40
2018-02-23T06:29:22.144Z,15.33
2018-02-23T06:31:49.722Z,16.10
2018-02-23T06:34:17.351Z,23.33
2018-02-23T06:36:44.987Z,22.67
2018-02-23T06:39:12.559Z,22.93
2018-02-23T06:41:40.130Z,23.07
2018-02-23T06:44:07.736Z,18.53
2018-02-23T06:46:35.305Z,16.30
2018-02-23T06:49:02.871Z,12.50
2018-02-23T06:51:30.555Z,12.30
2018-02-23T06:53:58.179Z,13.73
2018-02-23T06:56:25.811Z,15.20
2018-02-23T06:58:53.508Z,14.00
2018-02-23T07:01:21.150Z,17.03
2018-02-23T07:03:48.819Z,16.10
2018-02-23T07:06:16.423Z,14.13
2018-02-23T07:08:43.991Z,14.03
2018-02-23T07:11:11.583Z,15.73
2018-02-23T07:13:39.280Z,14.77
2018-02-23T07:16:06.981Z,10.37
2018-02-23T07:18:34.561Z,11.57
2018-02-23T07:21:02.277Z,12.80
2018-02-23T07:23:29.914Z,11.00
2018-02-23T07:25:57.584Z,12.50
2018-02-23T07:28:25.273Z,11.67
2018-02-23T07:30:52.917Z,11.47
2018-02-23T07:33:20.485Z,13.53
2018-02-23T07:35:48.179Z,50.80
2018-02-23T07:38:15.821Z,18.13
2018-02-23T07:40:43.399Z,12.50
2018-02-23T07:43:11.030Z,21.10
2018-02-23T07:45:38.613Z,15.50
2018-02-23T07:48:06.188Z,12.90
2018-02-23T07:50:33.859Z,13.10
2018-02-23T07:53:01.543Z,12.13
2018-02-23T07:55:29.110Z,11.97
2018-02-23T07:57:56.738Z,13.07
2018-02-23T08:00:24.351Z,13.93
2018-02-23T08:02:51.912Z,13.90
2018-02-23T08:05:19.547Z,12.70
2018-02-23T08:07:47.121Z,12.77
2018-02-23T08:10:14.761Z,11.67
2018-02-23T08:12:42.394Z,11.30
2018-02-23T08:15:10.072Z,10.87
2018-02-23T08:17:37.660Z,11.10
2018-02-23T08:20:05.317Z,11.77
2018-02-23T08:22:32.926Z,10.80
2018-02-23T08:25:00.559Z,10.50
2018-02-23T08:27:28.245Z,11.53
2018-02-23T08:29:55.825Z,10.33
2018-02-23T08:32:23.464Z,11.53
2018-02-23T08:34:51.111Z,10.23
2018-02-23T08:37:18.742Z,10.47
2018-02-23T08:39:46.319Z,10.63
2018-02-23T08:42:13.963Z,11.27
2018-02-23T08:44:41.538Z,11.93
2018-02-23T08:47:09.119Z,11.60
2018-02-23T08:49:36.816Z,10.30
2018-02-23T08:52:04.394Z,12.00
2018-02-23T08:54:31.970Z,13.37
2018-02-23T08:56:59.606Z,11.63
2018-02-23T08:59:27.190Z,27.30
2018-02-23T09:01:54.811Z,10.73
2018-02-23T09:04:22.443Z,9.70
2018-02-23T09:06:50.011Z,11.50
2018-02-23T09:09:17.583Z,10.63
2018-02-23T09:11:45.297Z,9.93
2018-02-23T09:14:12.984Z,11.37
2018-02-23T09:16:40.615Z,9.50
2018-02-23T09:19:08.301Z,9.27
2018-02-23T09:21:35.882Z,10.90
2018-02-23T09:24:03.448Z,11.97
2018-02-23T09:26:31.087Z,10.10
2018-02-23T09:28:58.660Z,11.57
2018-02-23T09:31:26.336Z,10.83
2018-02-23T09:34:05.789Z,11.17
2018-02-23T09:36:33.358Z,10.97
2018-02-23T09:39:01.007Z,10.30
2018-02-23T09:41:28.637Z,10.07
2018-02-23T09:43:56.283Z,9.00
2018-02-23T09:46:23.927Z,10.40
2018-02-23T09:48:51.565Z,10.10
2018-02-23T09:51:19.199Z,9.80
2018-02-23T09:53:46.778Z,9.90
2018-02-23T09:56:14.544Z,9.50
2018-02-23T09:58:42.119Z,9.40
2018-02-23T10:01:09.712Z,8.97
2018-02-23T10:03:37.464Z,9.10
2018-02-23T10:06:05.227Z,8.43
2018-02-23T10:08:32.808Z,8.27
2018-02-23T10:11:00.442Z,9.00
2018-02-23T10:13:28.020Z,9.50
2018-02-23T10:15:55.650Z,8.53
2018-02-23T10:18:23.269Z,8.50
2018-02-23T10:20:50.839Z,8.60
2018-02-23T10:23:18.402Z,8.60
2018-02-23T10:25:46.041Z,10.00
2018-02-23T10:28:13.626Z,10.17
2018-02-23T10:30:41.190Z,8.93
2018-02-23T10:33:08.826Z,9.87
2018-02-23T10:35:36.501Z,11.50
2018-02-23T10:38:04.187Z,8.57
2018-02-23T10:40:31.863Z,10.17
2018-02-23T10:42:59.524Z,8.53
2018-02-23T10:45:27.137Z,9.20
2018-02-23T10:47:59.207Z,8.80
2018-02-23T10:50:26.821Z,8.80
2018-02-23T10:52:54.399Z,7.53
2018-02-23T10:55:22.104Z,10.70
2018-02-23T10:57:49.770Z,10.13
2018-02-23T11:00:17.371Z,9.53
2018-02-23T11:02:45.052Z,7.37
2018-02-23T11:05:12.619Z,8.17
2018-02-23T11:07:40.218Z,8.37
2018-02-23T11:10:07.914Z,8.67
2018-02-23T11:12:35.534Z,6.53
2018-02-23T11:15:03.094Z,8.97
2018-02-23T11:17:30.724Z,7.03
2018-02-23T11:19:58.396Z,6.20
2018-02-23T11:22:25.976Z,7.30
2018-02-23T11:24:53.614Z,10.63
2018-02-23T11:27:21.187Z,8.57
2018-02-23T11:29:48.802Z,8.23
2018-02-23T11:32:16.481Z,8.90
2018-02-23T11:34:44.115Z,7.27
2018-02-23T11:37:11.760Z,8.23
2018-02-23T11:39:39.382Z,7.57
2018-02-23T11:42:07.007Z,8.10
2018-02-23T11:44:34.650Z,9.10
2018-02-23T11:47:02.274Z,9.20
2018-02-23T11:49:29.838Z,8.07
2018-02-23T11:51:57.407Z,7.83
2018-02-23T11:54:25.047Z,7.00
2018-02-23T11:56:52.640Z,10.53
2018-02-23T11:59:20.241Z,7.23
2018-02-23T12:01:48.535Z,7.40
2018-02-23T12:04:16.163Z,7.47
2018-02-23T12:06:43.795Z,6.47
2018-02-23T12:09:11.418Z,6.00
2018-02-23T12:11:38.985Z,8.30
2018-02-23T12:14:06.550Z,8.53
2018-02-23T12:16:34.185Z,9.83
2018-02-23T12:19:01.849Z,9.03
2018-02-23T12:21:29.509Z,8.97
2018-02-23T12:23:57.247Z,7.07
2018-02-23T12:26:24.833Z,6.20
2018-02-23T12:28:52.406Z,6.17
2018-02-23T12:31:20.017Z,8.03
2018-02-23T12:33:47.586Z,8.60
2018-02-23T12:36:15.225Z,9.27
2018-02-23T12:38:42.858Z,9.40
2018-02-23T12:41:10.488Z,8.80
2018-02-23T12:43:38.097Z,6.10
2018-02-23T12:46:05.694Z,8.57
2018-02-23T12:48:33.258Z,7.90
2018-02-23T12:51:00.947Z,7.90
2018-02-23T12:53:28.581Z,9.00
2018-02-23T12:55:56.156Z,11.53
2018-02-23T12:58:23.716Z,9.10
2018-02-23T13:00:51.355Z,9.83
2018-02-23T13:03:18.983Z,9.80
2018-02-23T13:05:46.611Z,8.40
2018-02-23T13:08:14.244Z,7.60
2018-02-23T13:10:41.815Z,9.60
2018-02-23T13:13:09.395Z,10.97
2018-02-23T13:15:37.037Z,11.00
2018-02-23T13:18:04.631Z,10.43
2018-02-23T13:20:32.212Z,13.50
2018-02-23T13:22:59.843Z,13.87
2018-02-23T13:25:27.484Z,17.20
2018-02-23T13:28:00.528Z,17.87
2018-02-23T13:30:28.215Z,18.90
2018-02-23T13:32:55.849Z,10.90
2018-02-23T13:35:23.533Z,18.40
2018-02-23T13:37:51.122Z,18.30
2018-02-23T13:40:18.731Z,12.10
2018-02-23T13:42:46.401Z,14.50
2018-02-23T13:45:14.053Z,17.20
2018-02-23T13:47:41.707Z,20.50
2018-02-23T13:50:09.356Z,19.57
2018-02-23T13:52:37.011Z,25.50
2018-02-23T13:55:04.624Z,19.37
2018-02-23T13:57:32.263Z,19.97
2018-02-23T14:00:00.728Z,36.73
2018-02-23T14:02:28.298Z,16.03
2018-02-23T14:04:55.927Z,16.00
2018-02-23T14:07:24.488Z,16.33
2018-02-23T14:09:52.104Z,15.53
2018-02-23T14:12:19.752Z,17.90
2018-02-23T14:14:47.427Z,20.13
2018-02-23T14:17:15.056Z,17.20
2018-02-23T14:19:42.796Z,22.20
2018-02-23T14:22:10.372Z,22.00
2018-02-23T14:24:37.957Z,20.57
2018-02-23T14:27:05.583Z,21.77
2018-02-23T14:29:33.163Z,22.77
2018-02-23T14:32:00.790Z,19.33
2018-02-23T14:34:28.423Z,22.87
2018-02-23T14:36:55.990Z,24.30
2018-02-23T14:39:23.579Z,18.57
2018-02-23T14:41:51.214Z,21.53
2018-02-23T14:44:18.857Z,19.13
2018-02-23T14:46:46.498Z,22.47
2018-02-23T14:49:21.048Z,19.20
2018-02-23T14:51:48.715Z,22.40
2018-02-23T14:54:16.546Z,22.80
2018-02-23T14:56:44.187Z,23.73
2018-02-23T14:59:11.757Z,22.50
2018-02-23T15:01:39.400Z,21.53
2018-02-23T15:04:07.090Z,27.10
2018-02-23T15:06:34.669Z,24.73
2018-02-23T15:09:02.285Z,22.30
2018-02-23T15:11:29.914Z,22.87
2018-02-23T15:13:57.482Z,22.60
2018-02-23T15:16:25.114Z,23.70
2018-02-23T15:18:52.770Z,27.13
2018-02-23T15:21:20.369Z,29.60
2018-02-23T15:23:47.955Z,27.17
2018-02-23T15:26:15.583Z,28.03
2018-02-23T15:28:43.208Z,23.80
2018-02-23T15:31:22.727Z,24.20
2018-02-23T15:33:50.296Z,26.87
2018-02-23T15:36:17.869Z,27.23
2018-02-23T15:38:45.579Z,25.07
2018-02-23T15:41:13.165Z,28.20
2018-02-23T15:43:40.755Z,27.97
2018-02-23T15:46:08.422Z,28.17
2018-02-23T15:48:43.539Z,29.57
2018-02-23T15:51:26.838Z,30.43
2018-02-23T15:53:54.468Z,36.20
2018-02-23T15:56:22.152Z,34.17
2018-02-23T15:58:49.844Z,39.40
2018-02-23T16:01:17.462Z,35.60
2018-02-23T16:03:45.147Z,33.60
2018-02-23T16:06:12.882Z,36.53
2018-02-23T16:08:40.505Z,31.83
2018-02-23T16:11:08.164Z,31.60
2018-02-23T16:13:35.839Z,43.37
2018-02-23T16:16:03.455Z,29.00
2018-02-23T16:18:31.032Z,29.80
2018-02-23T16:20:58.682Z,29.80
2018-02-23T16:23:26.422Z,35.33
2018-02-23T16:25:53.999Z,35.83
2018-02-23T16:28:21.625Z,28.63
2018-02-23T16:30:49.279Z,37.77
2018-02-23T16:33:16.864Z,37.60
2018-02-23T16:35:44.586Z,39.90
2018-02-23T16:38:12.210Z,36.70
2018-02-23T16:40:39.778Z,38.40
2018-02-23T16:43:07.410Z,63.23
2018-02-23T16:45:35.053Z,36.70
2018-02-23T16:48:02.626Z,33.40
2018-02-23T16:50:30.252Z,33.10
2018-02-23T16:52:57.843Z,65.83
2018-02-23T16:55:25.443Z,41.83
2018-02-23T16:57:53.070Z,41.93
2018-02-23T17:00:20.712Z,36.27
2018-02-23T17:02:48.347Z,37.83
2018-02-23T17:05:15.951Z,41.07
2018-02-23T17:07:43.553Z,38.77
2018-02-23T17:10:11.139Z,49.33
2018-02-23T17:12:38.771Z,43.40
2018-02-23T17:15:06.340Z,40.30
2018-02-23T17:17:33.924Z,38.87
2018-02-23T17:20:01.615Z,32.30
2018-02-23T17:22:29.211Z,40.57
2018-02-23T17:24:56.774Z,42.90
2018-02-23T17:27:24.500Z,38.90
2018-02-23T17:29:52.086Z,41.67
2018-02-23T17:32:19.674Z,36.30
2018-02-23T17:34:47.361Z,70.20
2018-02-23T17:37:14.920Z,39.80
2018-02-23T17:39:42.522Z,41.87
2018-02-23T17:42:10.199Z,37.23
2018-02-23T17:44:37.783Z,38.43
2018-02-23T17:47:05.419Z,46.40
2018-02-23T17:49:33.120Z,42.03
2018-02-23T17:52:00.716Z,41.77
2018-02-23T17:54:28.409Z,37.30
2018-02-23T17:56:56.054Z,56.07
2018-02-23T17:59:23.638Z,37.10
2018-02-23T18:01:51.206Z,32.80
2018-02-23T18:04:18.901Z,39.30
2018-02-23T18:06:46.470Z,47.13
2018-02-23T18:09:14.139Z,42.93
2018-02-23T18:11:41.767Z,50.93
2018-02-23T18:14:09.349Z,41.00
2018-02-23T18:16:36.927Z,35.30
2018-02-23T18:19:04.569Z,37.03
2018-02-23T18:21:32.212Z,38.30
2018-02-23T18:23:59.908Z,37.77
2018-02-23T18:26:27.591Z,39.03
2018-02-23T18:29:02.582Z,42.20
2018-02-23T18:31:30.266Z,34.00
2018-02-23T18:33:57.838Z,30.03
2018-02-23T18:36:25.410Z,28.73
2018-02-23T18:38:53.043Z,31.43
2018-02-23T18:41:20.748Z,31.60
2018-02-23T18:43:48.368Z,40.03
2018-02-23T18:46:16.055Z,41.23
2018-02-23T18:48:43.630Z,37.07
2018-02-23T18:51:11.250Z,40.63
2018-02-23T18:53:38.887Z,37.37
2018-02-23T18:56:06.518Z,41.53
2018-02-23T18:58:34.212Z,39.77
2018-02-23T19:01:01.839Z,40.07
2018-02-23T19:03:29.535Z,38.67
2018-02-23T19:05:57.160Z,37.03
2018-02-23T19:08:24.861Z,48.30
2018-02-23T19:10:52.515Z,50.67
2018-02-23T19:13:20.119Z,49.00
2018-02-23T19:15:47.811Z,50.93
2018-02-23T19:18:15.391Z,48.70
2018-02-23T19:20:42.992Z,46.10
2018-02-23T19:23:10.687Z,51.87
2018-02-23T19:25:38.371Z,54.40
2018-02-23T19:28:06.004Z,51.33
2018-02-23T19:30:33.683Z,48.53
2018-02-23T19:33:01.313Z,53.40
2018-02-23T19:35:28.938Z,50.10
2018-02-23T19:37:56.678Z,50.13
2018-02-23T19:40:24.404Z,53.73
2018-02-23T19:42:51.997Z,49.77
2018-02-23T19:45:19.676Z,54.47
2018-02-23T19:47:47.331Z,61.40
2018-02-23T19:50:14.939Z,49.57
2018-02-23T19:52:42.611Z,59.30
2018-02-23T19:55:10.207Z,55.60
2018-02-23T19:57:37.809Z,51.63
2018-02-23T20:00:05.464Z,44.63
2018-02-23T20:02:33.146Z,48.37
2018-02-23T20:05:00.807Z,49.63
2018-02-23T20:07:28.448Z,47.20
2018-02-23T20:09:56.018Z,41.63
2018-02-23T20:12:23.655Z,42.87
2018-02-23T20:14:51.398Z,45.80
2018-02-23T20:17:19.052Z,45.60
2018-02-23T20:19:46.626Z,43.53
2018-02-23T20:22:14.246Z,44.57
2018-02-23T20:24:41.899Z,47.07
2018-02-23T20:27:10.418Z,47.67
2018-02-23T20:29:38.152Z,44.87
2018-02-23T20:32:05.831Z,44.60
2018-02-23T20:34:33.452Z,46.57
2018-02-23T20:37:01.159Z,47.57
2018-02-23T20:39:28.782Z,49.20
2018-02-23T20:41:56.383Z,49.23
2018-02-23T20:44:24.053Z,47.90
2018-02-23T20:46:51.645Z,47.00
2018-02-23T20:49:19.309Z,46.70
2018-02-23T20:51:46.942Z,48.77
2018-02-23T20:57:45.007Z,44.90
2018-02-23T21:00:12.603Z,41.80
2018-02-23T21:02:40.196Z,42.73
2018-02-23T21:05:07.820Z,46.47
2018-02-23T21:07:35.408Z,44.27
2018-02-23T21:10:02.995Z,44.67
2018-02-23T21:12:30.643Z,41.33
2018-02-23T21:14:58.224Z,44.40
2018-02-23T21:17:25.803Z,46.80
2018-02-23T21:19:53.481Z,43.07
2018-02-23T21:22:21.138Z,40.97
2018-02-23T21:24:48.737Z,42.07
2018-02-23T21:27:16.448Z,43.20
2018-02-23T21:29:44.094Z,42.70
2018-02-23T21:32:11.675Z,43.70
2018-02-23T21:34:39.304Z,43.57
2018-02-23T21:37:06.874Z,38.73
2018-02-23T21:39:34.521Z,45.10
2018-02-23T21:42:02.135Z,41.50
2018-02-23T21:47:28.754Z,43.00
2018-02-23T21:49:56.371Z,47.50
2018-02-23T21:52:24.016Z,46.80
2018-02-23T21:54:51.668Z,46.40
2018-02-23T21:57:19.301Z,48.70
2018-02-23T21:59:46.926Z,52.87
2018-02-23T22:02:14.604Z,51.43
2018-02-23T22:04:42.296Z,51.07
2018-02-23T22:07:09.892Z,48.67
2018-02-23T22:09:37.531Z,48.70
2018-02-23T22:12:05.116Z,42.70
2018-02-23T22:14:32.701Z,42.90
2018-02-23T22:17:00.359Z,50.33
2018-02-23T22:19:28.006Z,43.77
2018-02-23T22:21:55.578Z,41.80
2018-02-23T22:24:23.444Z,47.10
2018-02-23T22:26:51.065Z,43.83
2018-02-23T22:29:18.681Z,40.37
2018-02-23T22:31:46.326Z,36.83
2018-02-23T22:34:13.877Z,35.67
2018-02-23T22:36:41.518Z,34.83
2018-02-23T22:39:09.198Z,38.53
2018-02-23T22:41:36.822Z,36.37
2018-02-23T22:44:04.390Z,38.87
2018-02-23T22:46:32.023Z,35.03
2018-02-23T22:48:59.652Z,36.00
2018-02-23T22:51:27.251Z,40.27
2018-02-23T22:53:54.949Z,36.13
2018-02-23T22:56:22.540Z,38.37
2018-02-23T22:58:50.120Z,35.20
2018-02-23T23:01:17.821Z,36.30
2018-02-23T23:03:45.450Z,34.33
2018-02-23T23:06:13.152Z,34.70
2018-02-23T23:08:40.794Z,33.30
2018-02-23T23:11:08.432Z,37.07
2018-02-23T23:13:35.978Z,35.60
2018-02-23T23:16:03.684Z,33.77
2018-02-23T23:18:31.272Z,32.40
2018-02-23T23:20:58.865Z,33.03
2018-02-23T23:23:26.565Z,36.20
2018-02-23T23:25:54.176Z,33.07
2018-02-23T23:28:21.749Z,34.07
2018-02-23T23:30:49.432Z,33.50
2018-02-23T23:33:18.024Z,31.33
2018-02-23T23:35:45.612Z,32.27
2018-02-23T23:38:13.231Z,31.93
2018-02-23T23:40:40.802Z,31.30
2018-02-23T23:43:08.394Z,29.07
2018-02-23T23:45:36.022Z,30.57
2018-02-23T23:48:03.588Z,31.00
2018-02-23T23:50:31.217Z,31.63
2018-02-23T23:52:58.859Z,32.10
2018-02-23T23:55:26.501Z,30.30
2018-02-23T23:57:54.076Z,30.03
